createdAt,value
2016-07-29T00:00:24.693Z,955.57
2016-07-29T00:01:22.341Z,955.61
2016-07-29T00:02:28.606Z,955.67
2016-07-29T00:03:29.334Z,955.65
2016-07-29T00:04:24.813Z,955.64
2016-07-29T00:06:24.885Z,955.68
2016-07-29T00:07:35.568Z,955.65
2016-07-29T00:08:35.041Z,955.67
2016-07-29T00:09:34.843Z,955.68
2016-07-29T00:10:34.115Z,955.67
2016-07-29T00:11:25.941Z,955.69
2016-07-29T00:12:27.006Z,955.72
2016-07-29T00:13:25.642Z,955.73
2016-07-29T00:14:41.238Z,955.68
2016-07-29T00:15:25.374Z,955.72
2016-07-29T00:16:27.581Z,955.68
2016-07-29T00:17:23.559Z,955.67
2016-07-29T00:18:18.602Z,955.65
2016-07-29T00:20:29.287Z,955.63
2016-07-29T00:21:25.481Z,955.61
2016-07-29T00:22:31.435Z,955.57
2016-07-29T00:23:33.245Z,955.61
2016-07-29T00:25:23.430Z,955.62
2016-07-29T00:26:22.816Z,955.65
2016-07-29T00:27:34.051Z,955.67
2016-07-29T00:28:29.160Z,955.65
2016-07-29T00:30:26.599Z,955.66
2016-07-29T00:31:20.220Z,955.69
2016-07-29T00:32:24.347Z,955.69
2016-07-29T00:33:27.405Z,955.71
2016-07-29T00:35:25.555Z,955.74
2016-07-29T00:36:21.773Z,955.71
2016-07-29T00:37:18.287Z,955.78
2016-07-29T00:38:26.452Z,955.74
2016-07-29T00:39:26.466Z,955.77
2016-07-29T00:40:23.555Z,955.74
2016-07-29T00:41:24.544Z,955.75
2016-07-29T00:42:21.736Z,955.75
2016-07-29T00:43:26.133Z,955.70
2016-07-29T00:44:32.655Z,955.70
2016-07-29T00:45:27.312Z,955.74
2016-07-29T00:46:26.893Z,955.76
2016-07-29T00:47:29.982Z,955.77
2016-07-29T00:48:28.510Z,955.75
2016-07-29T00:49:26.056Z,955.73
2016-07-29T00:50:22.083Z,955.72
2016-07-29T00:51:28.632Z,955.71
2016-07-29T00:52:33.887Z,955.68
2016-07-29T00:53:35.397Z,955.68
2016-07-29T00:54:27.974Z,955.70
2016-07-29T00:55:28.556Z,955.66
2016-07-29T00:56:38.642Z,955.66
2016-07-29T00:57:27.474Z,955.64
2016-07-29T00:58:28.939Z,955.65
2016-07-29T00:59:27.900Z,955.63
2016-07-29T01:00:28.649Z,955.67
2016-07-29T01:01:41.201Z,955.66
2016-07-29T01:02:41.222Z,955.63
2016-07-29T01:03:24.367Z,955.63
2016-07-29T01:04:20.321Z,955.61
2016-07-29T01:05:27.112Z,955.63
2016-07-29T01:06:27.191Z,955.62
2016-07-29T01:07:21.123Z,955.61
2016-07-29T01:08:33.467Z,955.66
2016-07-29T01:09:24.106Z,955.67
2016-07-29T01:10:25.937Z,955.67
2016-07-29T01:11:15.385Z,955.67
2016-07-29T01:12:27.375Z,955.70
2016-07-29T01:14:28.909Z,955.68
2016-07-29T01:15:17.105Z,955.68
2016-07-29T01:16:27.717Z,955.70
2016-07-29T01:17:22.734Z,955.75
2016-07-29T01:18:26.988Z,955.74
2016-07-29T01:19:33.401Z,955.78
2016-07-29T01:20:43.230Z,955.75
2016-07-29T01:21:28.519Z,955.71
2016-07-29T01:22:29.404Z,955.71
2016-07-29T01:24:41.481Z,955.76
2016-07-29T01:25:30.709Z,955.77
2016-07-29T01:26:28.760Z,955.78
2016-07-29T01:27:24.421Z,955.77
2016-07-29T01:28:17.354Z,955.77
2016-07-29T01:29:28.743Z,955.81
2016-07-29T01:30:33.460Z,955.79
2016-07-29T01:32:24.274Z,955.71
2016-07-29T01:33:46.522Z,955.72
2016-07-29T01:34:23.935Z,955.78
2016-07-29T01:35:20.977Z,955.76
2016-07-29T01:36:38.825Z,955.74
2016-07-29T01:37:28.837Z,955.74
2016-07-29T01:38:19.879Z,955.74
2016-07-29T01:39:29.236Z,955.74
2016-07-29T01:40:35.626Z,955.73
2016-07-29T01:42:25.253Z,955.74
2016-07-29T01:43:28.461Z,955.79
2016-07-29T01:44:23.811Z,955.75
2016-07-29T01:45:20.887Z,955.75
2016-07-29T01:46:28.933Z,955.74
2016-07-29T01:47:22.486Z,955.78
2016-07-29T01:48:41.101Z,955.78
2016-07-29T01:49:45.755Z,955.80
2016-07-29T01:50:33.812Z,955.78
2016-07-29T01:51:25.276Z,955.77
2016-07-29T01:52:29.500Z,955.77
2016-07-29T01:53:26.594Z,955.72
2016-07-29T01:54:22.525Z,955.79
2016-07-29T01:55:27.426Z,955.77
2016-07-29T01:56:22.271Z,955.75
2016-07-29T01:58:29.548Z,955.80
2016-07-29T01:59:29.880Z,955.78
2016-07-29T02:01:26.863Z,955.86
2016-07-29T02:02:30.140Z,955.80
2016-07-29T02:06:19.849Z,955.81
2016-07-29T02:07:33.024Z,955.79
2016-07-29T02:08:17.559Z,955.81
2016-07-29T02:09:25.491Z,955.83
2016-07-29T02:10:21.844Z,955.82
2016-07-29T02:11:21.535Z,955.80
2016-07-29T02:12:28.330Z,955.80
2016-07-29T02:13:18.401Z,955.76
2016-07-29T02:14:18.417Z,955.78
2016-07-29T02:15:18.341Z,955.78
2016-07-29T02:16:24.775Z,955.79
2016-07-29T02:18:19.976Z,955.76
2016-07-29T02:19:28.086Z,955.81
2016-07-29T02:20:33.253Z,955.81
2016-07-29T02:21:22.485Z,955.84
2016-07-29T02:22:21.702Z,955.82
2016-07-29T02:23:35.814Z,955.84
2016-07-29T02:24:24.113Z,955.80
2016-07-29T02:26:29.210Z,955.80
2016-07-29T02:27:23.754Z,955.77
2016-07-29T02:28:25.432Z,955.79
2016-07-29T02:29:24.511Z,955.80
2016-07-29T02:30:22.365Z,955.81
2016-07-29T02:31:29.027Z,955.86
2016-07-29T02:32:38.994Z,955.85
2016-07-29T02:33:27.592Z,955.91
2016-07-29T02:35:29.794Z,955.89
2016-07-29T02:36:26.729Z,955.91
2016-07-29T02:39:28.373Z,955.95
2016-07-29T02:40:18.690Z,955.96
2016-07-29T02:41:26.871Z,955.95
2016-07-29T02:42:28.024Z,955.97
2016-07-29T02:44:29.813Z,955.99
2016-07-29T02:45:29.135Z,955.97
2016-07-29T02:46:14.387Z,956.01
2016-07-29T02:48:33.654Z,956.02
2016-07-29T02:49:27.786Z,956.00
2016-07-29T02:50:22.731Z,956.03
2016-07-29T02:51:28.864Z,956.01
2016-07-29T02:52:31.117Z,955.98
2016-07-29T02:53:34.245Z,956.02
2016-07-29T02:54:26.851Z,955.98
2016-07-29T02:55:23.515Z,955.99
2016-07-29T02:56:26.609Z,955.99
2016-07-29T02:57:18.541Z,956.04
2016-07-29T02:58:17.511Z,956.01
2016-07-29T02:59:27.715Z,956.07
2016-07-29T03:01:25.420Z,956.02
2016-07-29T03:03:22.139Z,956.01
2016-07-29T03:04:24.164Z,955.99
2016-07-29T03:05:29.656Z,955.97
2016-07-29T03:06:24.276Z,956.00
2016-07-29T03:07:19.974Z,955.96
2016-07-29T03:08:18.686Z,955.94
2016-07-29T03:09:19.803Z,955.92
2016-07-29T03:10:26.029Z,955.91
2016-07-29T03:11:40.332Z,955.94
2016-07-29T03:12:26.430Z,955.92
2016-07-29T03:13:17.041Z,955.97
2016-07-29T03:14:22.541Z,956.08
2016-07-29T03:15:24.571Z,956.09
2016-07-29T03:16:24.966Z,956.13
2016-07-29T03:17:33.924Z,956.12
2016-07-29T03:18:18.556Z,956.11
2016-07-29T03:19:28.328Z,956.13
2016-07-29T03:20:18.541Z,956.11
2016-07-29T03:21:26.712Z,956.12
2016-07-29T03:22:23.386Z,956.14
2016-07-29T03:23:22.549Z,956.10
2016-07-29T03:24:18.557Z,956.14
2016-07-29T03:25:33.482Z,956.18
2016-07-29T03:26:24.252Z,956.22
2016-07-29T03:27:27.448Z,956.19
2016-07-29T03:28:24.489Z,956.17
2016-07-29T03:29:24.788Z,956.20
2016-07-29T03:30:35.823Z,956.19
2016-07-29T03:31:23.036Z,956.17
2016-07-29T03:32:41.734Z,956.18
2016-07-29T03:33:21.462Z,956.18
2016-07-29T03:35:22.405Z,956.20
2016-07-29T03:36:23.243Z,956.22
2016-07-29T03:37:31.424Z,956.23
2016-07-29T03:38:26.398Z,956.21
2016-07-29T03:39:25.889Z,956.19
2016-07-29T03:41:27.843Z,956.20
2016-07-29T03:43:25.725Z,956.22
2016-07-29T03:44:27.795Z,956.22
2016-07-29T03:45:24.822Z,956.26
2016-07-29T03:46:21.758Z,956.25
2016-07-29T03:47:23.651Z,956.28
2016-07-29T03:48:23.037Z,956.27
2016-07-29T03:49:20.621Z,956.26
2016-07-29T03:50:26.775Z,956.24
2016-07-29T03:51:40.993Z,956.22
2016-07-29T03:52:33.371Z,956.24
2016-07-29T03:53:27.469Z,956.24
2016-07-29T03:55:24.030Z,956.18
2016-07-29T03:56:14.294Z,956.18
2016-07-29T03:57:28.616Z,956.19
2016-07-29T03:58:19.671Z,956.22
2016-07-29T03:59:28.141Z,956.23
2016-07-29T04:02:25.340Z,956.25
2016-07-29T04:03:22.201Z,956.27
2016-07-29T04:04:23.833Z,956.29
2016-07-29T04:05:27.334Z,956.27
2016-07-29T04:07:23.436Z,956.34
2016-07-29T04:08:20.327Z,956.28
2016-07-29T04:09:26.475Z,956.30
2016-07-29T04:10:24.907Z,956.37
2016-07-29T04:13:22.573Z,956.34
2016-07-29T04:16:29.938Z,956.35
2016-07-29T04:17:35.157Z,956.30
2016-07-29T04:18:22.613Z,956.29
2016-07-29T04:19:23.184Z,956.31
2016-07-29T04:23:26.390Z,956.24
2016-07-29T04:24:28.416Z,956.28
2016-07-29T04:25:42.972Z,956.34
2016-07-29T04:27:40.498Z,956.30
2016-07-29T04:28:26.491Z,956.29
2016-07-29T04:29:26.641Z,956.31
2016-07-29T04:30:26.518Z,956.31
2016-07-29T04:31:26.813Z,956.34
2016-07-29T04:32:38.613Z,956.30
2016-07-29T04:33:28.890Z,956.29
2016-07-29T04:34:24.961Z,956.26
2016-07-29T04:35:25.855Z,956.23
2016-07-29T04:36:18.974Z,956.17
2016-07-29T04:39:29.155Z,956.11
2016-07-29T04:43:18.013Z,956.14
2016-07-29T04:47:41.025Z,956.09
2016-07-29T04:48:28.505Z,956.11
2016-07-29T04:49:27.059Z,956.12
2016-07-29T04:50:27.683Z,956.10
2016-07-29T04:51:26.244Z,956.12
2016-07-29T04:53:23.721Z,956.06
2016-07-29T04:55:17.282Z,956.09
2016-07-29T04:56:14.314Z,956.13
2016-07-29T04:57:23.106Z,956.16
2016-07-29T04:58:18.160Z,956.18
2016-07-29T05:00:20.195Z,956.16
2016-07-29T05:01:17.398Z,956.18
2016-07-29T05:02:22.572Z,956.20
2016-07-29T05:03:29.161Z,956.21
2016-07-29T05:05:26.905Z,956.21
2016-07-29T05:06:21.834Z,956.23
2016-07-29T05:08:26.805Z,956.23
2016-07-29T05:10:29.268Z,956.22
2016-07-29T05:11:22.726Z,956.20
2016-07-29T05:12:26.145Z,956.19
2016-07-29T05:13:19.471Z,956.17
2016-07-29T05:14:23.626Z,956.17
2016-07-29T05:15:29.202Z,956.17
2016-07-29T05:16:23.006Z,956.15
2016-07-29T05:17:22.355Z,956.17
2016-07-29T05:18:22.412Z,956.16
2016-07-29T05:19:19.783Z,956.23
2016-07-29T05:20:19.838Z,956.20
2016-07-29T05:21:29.356Z,956.16
2016-07-29T05:22:22.612Z,956.22
2016-07-29T05:23:22.897Z,956.22
2016-07-29T05:24:17.777Z,956.24
2016-07-29T05:25:23.110Z,956.26
2016-07-29T05:26:17.676Z,956.30
2016-07-29T05:27:17.526Z,956.30
2016-07-29T05:28:23.359Z,956.34
2016-07-29T05:29:29.830Z,956.35
2016-07-29T05:30:18.900Z,956.32
2016-07-29T05:31:12.294Z,956.33
2016-07-29T05:32:17.835Z,956.32
2016-07-29T05:33:37.112Z,956.29
2016-07-29T05:34:17.948Z,956.34
2016-07-29T05:35:18.007Z,956.32
2016-07-29T05:36:18.390Z,956.34
2016-07-29T05:37:18.642Z,956.30
2016-07-29T05:38:36.661Z,956.34
2016-07-29T05:39:29.789Z,956.30
2016-07-29T05:40:19.263Z,956.36
2016-07-29T05:41:17.279Z,956.37
2016-07-29T05:42:18.211Z,956.36
2016-07-29T05:43:18.460Z,956.35
2016-07-29T05:44:28.178Z,956.35
2016-07-29T05:45:28.640Z,956.36
2016-07-29T05:46:33.704Z,956.37
2016-07-29T05:47:31.051Z,956.39
2016-07-29T05:48:33.133Z,956.40
2016-07-29T05:49:13.024Z,956.39
2016-07-29T05:50:17.862Z,956.37
2016-07-29T05:51:26.918Z,956.37
2016-07-29T05:52:33.990Z,956.42
2016-07-29T05:53:28.600Z,956.36
2016-07-29T05:54:28.208Z,956.35
2016-07-29T05:55:18.438Z,956.34
2016-07-29T05:56:27.560Z,956.33
2016-07-29T05:57:27.657Z,956.37
2016-07-29T05:58:17.813Z,956.34
2016-07-29T05:59:26.901Z,956.37
2016-07-29T06:00:19.958Z,956.38
2016-07-29T06:01:25.908Z,956.40
2016-07-29T06:03:32.463Z,956.37
2016-07-29T06:05:17.519Z,956.43
2016-07-29T06:07:20.333Z,956.49
2016-07-29T06:08:26.589Z,956.49
2016-07-29T06:11:24.742Z,956.47
2016-07-29T06:12:25.821Z,956.45
2016-07-29T06:13:18.661Z,956.46
2016-07-29T06:15:36.062Z,956.48
2016-07-29T06:16:24.540Z,956.47
2016-07-29T06:17:17.644Z,956.47
2016-07-29T06:18:22.228Z,956.44
2016-07-29T06:19:22.399Z,956.44
2016-07-29T06:20:24.381Z,956.44
2016-07-29T06:21:27.147Z,956.43
2016-07-29T06:22:22.645Z,956.41
2016-07-29T06:23:39.924Z,956.44
2016-07-29T06:24:19.060Z,956.46
2016-07-29T06:26:19.943Z,956.45
2016-07-29T06:28:18.412Z,956.50
2016-07-29T06:29:26.681Z,956.48
2016-07-29T06:30:17.735Z,956.50
2016-07-29T06:32:26.505Z,956.44
2016-07-29T06:33:27.720Z,956.48
2016-07-29T06:34:28.352Z,956.47
2016-07-29T06:35:20.024Z,956.46
2016-07-29T06:38:20.183Z,956.46
2016-07-29T06:39:38.753Z,956.46
2016-07-29T06:40:39.759Z,956.47
2016-07-29T06:41:17.375Z,956.47
2016-07-29T06:42:18.317Z,956.44
2016-07-29T06:44:26.665Z,956.42
2016-07-29T06:45:19.583Z,956.41
2016-07-29T06:46:18.370Z,956.41
2016-07-29T06:47:28.484Z,956.41
2016-07-29T06:49:26.674Z,956.40
2016-07-29T06:50:20.101Z,956.36
2016-07-29T06:51:24.270Z,956.36
2016-07-29T06:52:28.842Z,956.35
2016-07-29T06:53:25.022Z,956.33
2016-07-29T06:55:28.700Z,956.34
2016-07-29T06:56:26.952Z,956.39
2016-07-29T06:57:19.544Z,956.41
2016-07-29T06:59:27.456Z,956.41
2016-07-29T07:00:17.525Z,956.40
2016-07-29T07:01:22.766Z,956.42
2016-07-29T07:02:19.738Z,956.42
2016-07-29T07:05:23.942Z,956.49
2016-07-29T07:07:26.478Z,956.46
2016-07-29T07:08:17.965Z,956.43
2016-07-29T07:10:29.046Z,956.42
2016-07-29T07:11:30.076Z,956.42
2016-07-29T07:13:17.480Z,956.43
2016-07-29T07:15:17.980Z,956.47
2016-07-29T07:16:22.899Z,956.43
2016-07-29T07:18:18.412Z,956.44
2016-07-29T07:19:21.196Z,956.42
2016-07-29T07:20:19.882Z,956.43
2016-07-29T07:21:17.492Z,956.42
2016-07-29T07:22:17.336Z,956.43
2016-07-29T07:23:34.324Z,956.43
2016-07-29T07:24:18.121Z,956.44
2016-07-29T07:25:17.635Z,956.46
2016-07-29T07:26:17.933Z,956.44
2016-07-29T07:27:23.592Z,956.44
2016-07-29T07:28:35.204Z,956.49
2016-07-29T07:29:28.025Z,956.45
2016-07-29T07:30:18.500Z,956.48
2016-07-29T07:31:21.973Z,956.52
2016-07-29T07:32:22.750Z,956.46
2016-07-29T07:33:33.875Z,956.49
2016-07-29T07:34:22.903Z,956.53
2016-07-29T07:35:17.901Z,956.56
2016-07-29T07:36:23.372Z,956.56
2016-07-29T07:38:23.553Z,956.53
2016-07-29T07:39:36.077Z,956.54
2016-07-29T07:40:23.322Z,956.51
2016-07-29T07:41:26.713Z,956.51
2016-07-29T07:42:23.679Z,956.52
2016-07-29T07:43:18.066Z,956.52
2016-07-29T07:44:18.252Z,956.52
2016-07-29T07:45:34.038Z,956.55
2016-07-29T07:47:17.675Z,956.56
2016-07-29T07:48:17.450Z,956.54
2016-07-29T07:49:22.352Z,956.58
2016-07-29T07:50:18.231Z,956.56
2016-07-29T07:52:27.483Z,956.56
2016-07-29T07:53:28.423Z,956.54
2016-07-29T07:54:17.600Z,956.57
2016-07-29T07:55:25.111Z,956.54
2016-07-29T07:56:28.462Z,956.53
2016-07-29T07:57:32.755Z,956.51
2016-07-29T07:58:17.283Z,956.53
2016-07-29T07:59:24.338Z,956.51
2016-07-29T08:01:21.731Z,956.50
2016-07-29T08:03:42.980Z,956.50
2016-07-29T08:04:43.318Z,956.48
2016-07-29T08:05:14.825Z,956.48
2016-07-29T08:06:18.646Z,956.46
2016-07-29T08:07:18.800Z,956.53
2016-07-29T08:08:25.280Z,956.51
2016-07-29T08:09:17.530Z,956.54
2016-07-29T08:10:19.091Z,956.49
2016-07-29T08:11:20.025Z,956.49
2016-07-29T08:12:26.086Z,956.43
2016-07-29T08:13:26.876Z,956.43
2016-07-29T08:14:19.965Z,956.44
2016-07-29T08:15:21.968Z,956.40
2016-07-29T08:16:27.429Z,956.39
2016-07-29T08:18:19.645Z,956.41
2016-07-29T08:19:18.254Z,956.43
2016-07-29T08:20:39.325Z,956.43
2016-07-29T08:21:24.538Z,956.40
2016-07-29T08:23:23.625Z,956.41
2016-07-29T08:24:19.896Z,956.36
2016-07-29T08:25:24.714Z,956.39
2016-07-29T08:27:17.757Z,956.36
2016-07-29T08:28:17.590Z,956.35
2016-07-29T08:29:22.147Z,956.38
2016-07-29T08:30:22.192Z,956.42
2016-07-29T08:31:23.917Z,956.42
2016-07-29T08:32:17.394Z,956.38
2016-07-29T08:34:25.151Z,956.32
2016-07-29T08:35:38.735Z,956.33
2016-07-29T08:36:35.919Z,956.36
2016-07-29T08:37:22.793Z,956.35
2016-07-29T08:38:29.983Z,956.36
2016-07-29T08:40:39.887Z,956.37
2016-07-29T08:41:24.013Z,956.40
2016-07-29T08:42:25.827Z,956.39
2016-07-29T08:44:31.207Z,956.39
2016-07-29T08:45:17.369Z,956.38
2016-07-29T08:59:24.726Z,956.43
2016-07-29T09:00:33.999Z,956.41
2016-07-29T09:01:23.677Z,956.47
2016-07-29T09:02:28.513Z,956.41
2016-07-29T09:03:16.692Z,956.46
2016-07-29T09:04:22.009Z,956.46
2016-07-29T09:05:23.060Z,956.41
2016-07-29T09:06:23.140Z,956.41
2016-07-29T09:07:49.476Z,956.41
2016-07-29T09:08:33.805Z,956.40
2016-07-29T09:09:28.182Z,956.35
2016-07-29T09:10:29.975Z,956.36
2016-07-29T09:11:20.119Z,956.32
2016-07-29T09:12:28.310Z,956.30
2016-07-29T09:14:22.669Z,956.34
2016-07-29T09:15:27.924Z,956.34
2016-07-29T09:16:33.694Z,956.33
2016-07-29T09:17:26.885Z,956.29
2016-07-29T09:18:28.044Z,956.29
2016-07-29T09:19:35.665Z,956.25
2016-07-29T09:20:23.286Z,956.24
2016-07-29T09:21:29.197Z,956.30
2016-07-29T09:22:17.288Z,956.22
2016-07-29T09:24:23.396Z,956.22
2016-07-29T09:25:35.743Z,956.22
2016-07-29T09:26:33.672Z,956.24
2016-07-29T09:27:28.528Z,956.26
2016-07-29T09:29:30.185Z,956.30
2016-07-29T09:30:29.029Z,956.27
2016-07-29T09:31:27.087Z,956.25
2016-07-29T09:32:19.511Z,956.29
2016-07-29T09:33:38.076Z,956.32
2016-07-29T09:34:27.036Z,956.30
2016-07-29T09:36:40.146Z,956.25
2016-07-29T09:37:33.968Z,956.24
2016-07-29T09:38:19.154Z,956.26
2016-07-29T09:39:18.311Z,956.20
2016-07-29T09:40:23.466Z,956.24
2016-07-29T09:41:28.403Z,956.28
2016-07-29T09:42:26.453Z,956.28
2016-07-29T09:43:25.966Z,956.28
2016-07-29T09:44:23.094Z,956.24
2016-07-29T09:45:28.203Z,956.23
2016-07-29T09:46:24.347Z,956.21
2016-07-29T09:47:34.184Z,956.25
2016-07-29T09:48:38.996Z,956.25
2016-07-29T09:49:29.093Z,956.23
2016-07-29T09:51:29.465Z,956.23
2016-07-29T09:52:35.365Z,956.17
2016-07-29T09:53:28.141Z,956.19
2016-07-29T09:54:26.258Z,956.19
2016-07-29T09:55:22.561Z,956.19
2016-07-29T09:56:28.113Z,956.22
2016-07-29T09:57:22.313Z,956.16
2016-07-29T09:58:28.568Z,956.23
2016-07-29T09:59:33.562Z,956.20
2016-07-29T10:00:33.276Z,956.22
2016-07-29T10:01:34.255Z,956.20
2016-07-29T10:02:26.610Z,956.19
2016-07-29T10:03:18.690Z,956.21
2016-07-29T10:04:24.813Z,956.22
2016-07-29T10:05:25.965Z,956.21
2016-07-29T10:06:22.677Z,956.21
2016-07-29T10:07:18.042Z,956.20
2016-07-29T10:08:40.492Z,956.19
2016-07-29T10:09:26.752Z,956.16
2016-07-29T10:10:17.641Z,956.13
2016-07-29T10:11:38.995Z,956.12
2016-07-29T10:12:29.174Z,956.17
2016-07-29T10:13:32.488Z,956.14
2016-07-29T10:14:22.183Z,956.17
2016-07-29T10:15:19.451Z,956.15
2016-07-29T10:17:22.684Z,956.20
2016-07-29T10:18:23.076Z,956.11
2016-07-29T10:21:24.412Z,956.13
2016-07-29T10:22:23.551Z,956.11
2016-07-29T10:23:19.804Z,956.09
2016-07-29T10:24:31.024Z,956.10
2016-07-29T10:25:28.621Z,956.09
2016-07-29T10:28:23.260Z,956.05
2016-07-29T10:29:28.285Z,955.99
2016-07-29T10:30:32.995Z,956.01
2016-07-29T10:32:22.771Z,956.03
2016-07-29T10:33:22.656Z,956.03
2016-07-29T10:35:32.763Z,956.04
2016-07-29T10:37:35.122Z,955.98
2016-07-29T10:38:20.653Z,956.00
2016-07-29T10:39:21.362Z,955.99
2016-07-29T10:40:30.494Z,955.97
2016-07-29T10:41:24.574Z,955.98
2016-07-29T10:42:29.599Z,955.99
2016-07-29T10:43:17.561Z,955.94
2016-07-29T10:45:23.981Z,955.92
2016-07-29T10:46:38.840Z,955.93
2016-07-29T10:47:17.993Z,955.92
2016-07-29T10:48:31.703Z,955.89
2016-07-29T10:50:32.277Z,955.86
2016-07-29T10:51:22.272Z,955.87
2016-07-29T10:52:29.014Z,955.89
2016-07-29T10:53:23.105Z,955.93
2016-07-29T10:54:27.172Z,955.87
2016-07-29T10:55:28.472Z,955.84
2016-07-29T10:56:20.659Z,955.87
2016-07-29T10:57:23.211Z,955.89
2016-07-29T10:58:21.404Z,955.86
2016-07-29T11:00:42.539Z,955.85
2016-07-29T11:01:22.607Z,955.91
2016-07-29T11:02:40.204Z,955.89
2016-07-29T11:03:22.207Z,955.89
2016-07-29T11:04:40.287Z,955.83
2016-07-29T11:05:27.443Z,955.81
2016-07-29T11:06:26.615Z,955.72
2016-07-29T11:08:17.824Z,955.71
2016-07-29T11:09:27.458Z,955.74
2016-07-29T11:11:28.932Z,955.77
2016-07-29T11:13:18.438Z,955.71
2016-07-29T11:14:25.986Z,955.71
2016-07-29T11:17:26.804Z,955.71
2016-07-29T11:18:30.017Z,955.69
2016-07-29T11:20:37.822Z,955.71
2016-07-29T11:21:23.358Z,955.66
2016-07-29T11:22:26.074Z,955.68
2016-07-29T11:23:32.159Z,955.70
2016-07-29T11:24:26.379Z,955.71
2016-07-29T11:25:19.852Z,955.75
2016-07-29T11:26:17.644Z,955.72
2016-07-29T11:27:28.420Z,955.72
2016-07-29T11:28:30.605Z,955.71
2016-07-29T11:29:26.802Z,955.65
2016-07-29T11:30:36.036Z,955.60
2016-07-29T11:31:19.920Z,955.63
2016-07-29T11:32:40.783Z,955.63
2016-07-29T11:33:26.888Z,955.62
2016-07-29T11:35:20.667Z,955.67
2016-07-29T11:36:28.502Z,955.62
2016-07-29T11:37:24.523Z,955.62
2016-07-29T11:38:31.786Z,955.57
2016-07-29T11:41:33.125Z,955.55
2016-07-29T11:42:21.827Z,955.56
2016-07-29T11:43:18.096Z,955.54
2016-07-29T11:44:26.401Z,955.56
2016-07-29T11:45:39.490Z,955.50
2016-07-29T11:46:26.364Z,955.54
2016-07-29T11:47:13.236Z,955.51
2016-07-29T11:48:32.496Z,955.57
2016-07-29T11:50:41.010Z,955.56
2016-07-29T11:51:18.096Z,955.52
2016-07-29T11:52:17.328Z,955.58
2016-07-29T11:53:19.217Z,955.58
2016-07-29T11:54:20.524Z,955.51
2016-07-29T11:55:22.495Z,955.52
2016-07-29T11:56:17.875Z,955.54
2016-07-29T11:57:26.779Z,955.51
2016-07-29T11:58:27.642Z,955.50
2016-07-29T11:59:27.880Z,955.55
2016-07-29T12:00:23.197Z,955.51
2016-07-29T12:01:33.051Z,955.49
2016-07-29T12:02:24.316Z,955.45
2016-07-29T12:03:23.282Z,955.48
2016-07-29T12:05:26.204Z,955.53
2016-07-29T12:06:17.873Z,955.50
2016-07-29T12:07:22.422Z,955.47
2016-07-29T12:08:29.091Z,955.42
2016-07-29T12:09:29.737Z,955.39
2016-07-29T12:11:26.997Z,955.43
2016-07-29T12:12:28.507Z,955.43
2016-07-29T12:13:40.566Z,955.41
2016-07-29T12:14:42.856Z,955.38
2016-07-29T12:16:17.598Z,955.39
2016-07-29T12:17:27.717Z,955.45
2016-07-29T12:18:34.857Z,955.43
2016-07-29T12:19:17.768Z,955.48
2016-07-29T12:20:17.842Z,955.44
2016-07-29T12:21:27.508Z,955.40
2016-07-29T12:22:26.826Z,955.34
2016-07-29T12:23:25.586Z,955.46
2016-07-29T12:24:20.436Z,955.32
2016-07-29T12:25:19.146Z,955.30
2016-07-29T12:26:23.077Z,955.31
2016-07-29T12:28:28.768Z,955.24
2016-07-29T12:29:36.285Z,955.24
2016-07-29T12:30:27.748Z,955.25
2016-07-29T12:31:17.857Z,955.20
2016-07-29T12:32:22.550Z,955.25
2016-07-29T12:34:23.408Z,955.24
2016-07-29T12:35:23.783Z,955.26
2016-07-29T12:36:43.961Z,955.26
2016-07-29T12:38:28.531Z,955.16
2016-07-29T12:39:18.309Z,955.13
2016-07-29T12:40:23.112Z,955.19
2016-07-29T12:41:21.814Z,955.16
2016-07-29T12:43:30.972Z,955.15
2016-07-29T12:44:22.921Z,955.15
2016-07-29T12:45:18.338Z,955.10
2016-07-29T12:46:19.248Z,955.12
2016-07-29T12:47:19.629Z,955.09
2016-07-29T12:48:19.122Z,955.08
2016-07-29T12:50:28.441Z,954.96
2016-07-29T12:52:28.036Z,954.96
2016-07-29T12:53:29.016Z,955.00
2016-07-29T12:54:24.353Z,954.98
2016-07-29T12:55:22.659Z,954.97
2016-07-29T12:56:23.944Z,954.98
2016-07-29T12:57:24.059Z,954.92
2016-07-29T13:01:23.593Z,954.97
2016-07-29T13:03:31.412Z,954.92
2016-07-29T13:04:18.321Z,954.93
2016-07-29T13:05:31.901Z,954.94
2016-07-29T13:06:27.319Z,954.93
2016-07-29T13:07:17.502Z,954.93
2016-07-29T13:08:33.941Z,954.91
2016-07-29T13:09:30.739Z,954.92
2016-07-29T13:10:35.886Z,954.93
2016-07-29T13:11:30.551Z,954.91
2016-07-29T13:13:40.973Z,954.86
2016-07-29T13:14:33.233Z,954.90
2016-07-29T13:16:00.981Z,954.86
2016-07-29T13:16:32.499Z,954.89
2016-07-29T13:17:23.942Z,954.84
2016-07-29T13:19:23.089Z,954.79
2016-07-29T13:20:22.939Z,954.79
2016-07-29T13:21:22.027Z,954.78
2016-07-29T13:22:27.800Z,954.82
2016-07-29T13:23:18.226Z,954.80
2016-07-29T13:24:32.988Z,954.82
2016-07-29T13:26:25.610Z,954.80
2016-07-29T13:27:23.745Z,954.76
2016-07-29T13:28:18.173Z,954.76
2016-07-29T13:29:23.186Z,954.77
2016-07-29T13:30:18.007Z,954.80
2016-07-29T13:31:39.743Z,954.80
2016-07-29T13:32:35.056Z,954.83
2016-07-29T13:33:35.185Z,954.82
2016-07-29T13:34:35.346Z,954.80
2016-07-29T13:35:26.743Z,954.78
2016-07-29T13:36:30.535Z,954.81
2016-07-29T13:37:30.621Z,954.77
2016-07-29T13:38:18.736Z,954.77
2016-07-29T13:39:33.976Z,954.74
2016-07-29T13:40:41.411Z,954.74
2016-07-29T13:41:19.357Z,954.71
2016-07-29T13:42:34.757Z,954.73
2016-07-29T13:43:30.847Z,954.77
2016-07-29T13:44:25.750Z,954.76
2016-07-29T13:46:39.082Z,954.70
2016-07-29T13:47:23.855Z,954.72
2016-07-29T13:48:26.745Z,954.69
2016-07-29T13:49:18.139Z,954.69
2016-07-29T13:50:28.401Z,954.64
2016-07-29T13:51:18.828Z,954.66
2016-07-29T13:52:19.295Z,954.62
2016-07-29T13:53:18.638Z,954.59
2016-07-29T13:54:18.343Z,954.61
2016-07-29T13:55:42.515Z,954.67
2016-07-29T13:56:18.182Z,954.61
2016-07-29T13:57:23.909Z,954.57
2016-07-29T13:58:27.212Z,954.61
2016-07-29T14:00:26.596Z,954.57
2016-07-29T14:01:18.706Z,954.59
2016-07-29T14:02:17.929Z,954.58
2016-07-29T14:03:39.737Z,954.54
2016-07-29T14:04:39.094Z,954.55
2016-07-29T14:05:22.592Z,954.56
2016-07-29T14:07:37.419Z,954.50
2016-07-29T14:08:27.771Z,954.48
2016-07-29T14:09:19.879Z,954.51
2016-07-29T14:11:17.684Z,954.47
2016-07-29T14:12:22.002Z,954.46
2016-07-29T14:13:18.288Z,954.43
2016-07-29T14:14:18.079Z,954.41
2016-07-29T14:15:37.577Z,954.38
2016-07-29T14:16:38.013Z,954.36
2016-07-29T14:17:22.233Z,954.38
2016-07-29T14:18:31.213Z,954.37
2016-07-29T14:19:19.787Z,954.35
2016-07-29T14:20:18.323Z,954.35
2016-07-29T14:21:22.484Z,954.39
2016-07-29T14:22:20.204Z,954.31
2016-07-29T14:23:28.798Z,954.36
2016-07-29T14:24:23.611Z,954.37
2016-07-29T14:25:19.331Z,954.40
2016-07-29T14:26:16.140Z,954.41
2016-07-29T14:27:23.102Z,954.35
2016-07-29T14:31:13.052Z,954.23
2016-07-29T14:32:23.401Z,954.26
2016-07-29T14:33:24.599Z,954.19
2016-07-29T14:34:34.641Z,954.24
2016-07-29T14:36:20.077Z,954.15
2016-07-29T14:38:32.910Z,954.19
2016-07-29T14:39:28.621Z,954.21
2016-07-29T14:40:17.381Z,954.18
2016-07-29T14:41:23.400Z,954.24
2016-07-29T14:43:32.344Z,954.15
2016-07-29T14:44:30.509Z,954.12
2016-07-29T14:45:28.807Z,954.11
2016-07-29T14:46:22.873Z,954.11
2016-07-29T14:48:17.429Z,954.10
2016-07-29T14:49:30.364Z,954.09
2016-07-29T14:50:25.435Z,954.08
2016-07-29T14:51:23.039Z,954.07
2016-07-29T14:52:22.626Z,954.08
2016-07-29T14:53:18.321Z,954.07
2016-07-29T14:54:16.189Z,954.04
2016-07-29T14:55:23.446Z,954.04
2016-07-29T14:57:57.499Z,954.08
2016-07-29T14:58:24.134Z,954.01
2016-07-29T14:59:28.231Z,954.01
2016-07-29T15:01:27.892Z,954.01